sensor_id;sensor_type;location;lat;lon;timestamp;temperature;humidity
13264;DHT22;6700;51.988;7.646;2023-12-20T00:00:54;6.70;99.90
13264;DHT22;6700;51.988;7.646;2023-12-20T00:03:21;6.60;99.90
13264;DHT22;6700;51.988;7.646;2023-12-20T00:05:47;6.60;99.90
13264;DHT22;6700;51.988;7.646;2023-12-20T00:08:14;6.60;99.90
13264;DHT22;6700;51.988;7.646;2023-12-20T00:10:40;6.60;99.90
13264;DHT22;6700;51.988;7.646;2023-12-20T00:13:07;6.60;99.90
13264;DHT22;6700;51.988;7.646;2023-12-20T00:15:34;6.70;99.90
13264;DHT22;6700;51.988;7.646;2023-12-20T00:18:01;6.70;99.90
13264;DHT22;6700;51.988;7.646;2023-12-20T00:20:28;6.70;99.90
13264;DHT22;6700;51.988;7.646;2023-12-20T00:22:57;6.70;99.90
13264;DHT22;6700;51.988;7.646;2023-12-20T00:25:24;6.60;99.90
13264;DHT22;6700;51.988;7.646;2023-12-20T00:27:51;6.70;99.90
13264;DHT22;6700;51.988;7.646;2023-12-20T00:30:18;6.70;99.90
13264;DHT22;6700;51.988;7.646;2023-12-20T00:32:45;6.70;99.90
13264;DHT22;6700;51.988;7.646;2023-12-20T00:35:13;6.70;99.90
13264;DHT22;6700;51.988;7.646;2023-12-20T00:37:40;6.70;99.90
13264;DHT22;6700;51.988;7.646;2023-12-20T00:40:07;6.70;99.90
13264;DHT22;6700;51.988;7.646;2023-12-20T00:42:34;6.60;99.90
13264;DHT22;6700;51.988;7.646;2023-12-20T00:45:00;6.60;99.90
13264;DHT22;6700;51.988;7.646;2023-12-20T00:47:27;6.60;99.90
13264;DHT22;6700;51.988;7.646;2023-12-20T00:49:53;6.60;99.90
13264;DHT22;6700;51.988;7.646;2023-12-20T00:52:20;6.60;99.90
13264;DHT22;6700;51.988;7.646;2023-12-20T00:54:49;6.60;99.90
13264;DHT22;6700;51.988;7.646;2023-12-20T00:57:15;6.60;99.90
13264;DHT22;6700;51.988;7.646;2023-12-20T00:59:42;6.50;99.90
13264;DHT22;6700;51.988;7.646;2023-12-20T01:02:09;6.50;99.90
13264;DHT22;6700;51.988;7.646;2023-12-20T01:04:36;6.40;99.90
13264;DHT22;6700;51.988;7.646;2023-12-20T01:07:03;6.40;99.90
13264;DHT22;6700;51.988;7.646;2023-12-20T01:09:30;6.30;99.90
13264;DHT22;6700;51.988;7.646;2023-12-20T01:11:56;6.30;99.90
13264;DHT22;6700;51.988;7.646;2023-12-20T01:14:23;6.30;99.90
13264;DHT22;6700;51.988;7.646;2023-12-20T01:16:50;6.30;99.90
13264;DHT22;6700;51.988;7.646;2023-12-20T01:19:16;6.30;99.90
13264;DHT22;6700;51.988;7.646;2023-12-20T01:21:43;6.30;99.90
13264;DHT22;6700;51.988;7.646;2023-12-20T01:24:10;6.30;99.90
13264;DHT22;6700;51.988;7.646;2023-12-20T01:26:36;6.20;99.90
13264;DHT22;6700;51.988;7.646;2023-12-20T01:29:03;6.20;99.90
13264;DHT22;6700;51.988;7.646;2023-12-20T01:31:30;6.20;99.90
13264;DHT22;6700;51.988;7.646;2023-12-20T01:33:56;6.10;99.90
13264;DHT22;6700;51.988;7.646;2023-12-20T01:36:23;6.20;99.90
13264;DHT22;6700;51.988;7.646;2023-12-20T01:38:49;6.10;99.90
13264;DHT22;6700;51.988;7.646;2023-12-20T01:41:16;6.10;99.90
13264;DHT22;6700;51.988;7.646;2023-12-20T01:43:43;6.00;99.90
13264;DHT22;6700;51.988;7.646;2023-12-20T01:46:17;6.10;99.90
13264;DHT22;6700;51.988;7.646;2023-12-20T01:48:44;6.10;99.90
13264;DHT22;6700;51.988;7.646;2023-12-20T01:51:11;6.10;99.90
13264;DHT22;6700;51.988;7.646;2023-12-20T01:53:38;6.10;99.90
13264;DHT22;6700;51.988;7.646;2023-12-20T01:56:05;6.00;99.90
13264;DHT22;6700;51.988;7.646;2023-12-20T01:58:33;6.10;99.90
13264;DHT22;6700;51.988;7.646;2023-12-20T02:00:59;6.00;99.90
13264;DHT22;6700;51.988;7.646;2023-12-20T02:03:26;5.90;99.90
13264;DHT22;6700;51.988;7.646;2023-12-20T02:05:53;5.90;99.90
13264;DHT22;6700;51.988;7.646;2023-12-20T02:08:20;5.80;99.90
13264;DHT22;6700;51.988;7.646;2023-12-20T02:10:46;5.80;99.90
13264;DHT22;6700;51.988;7.646;2023-12-20T02:13:13;5.90;99.90
13264;DHT22;6700;51.988;7.646;2023-12-20T02:15:40;5.80;99.90
13264;DHT22;6700;51.988;7.646;2023-12-20T02:18:09;5.80;99.90
13264;DHT22;6700;51.988;7.646;2023-12-20T02:20:35;5.90;99.90
13264;DHT22;6700;51.988;7.646;2023-12-20T02:23:02;5.80;99.90
13264;DHT22;6700;51.988;7.646;2023-12-20T02:25:29;5.80;99.90
13264;DHT22;6700;51.988;7.646;2023-12-20T02:27:55;5.90;99.90
13264;DHT22;6700;51.988;7.646;2023-12-20T02:30:22;5.90;99.90
13264;DHT22;6700;51.988;7.646;2023-12-20T02:32:49;5.90;99.90
13264;DHT22;6700;51.988;7.646;2023-12-20T02:35:16;5.90;99.90
13264;DHT22;6700;51.988;7.646;2023-12-20T02:37:43;5.90;99.90
13264;DHT22;6700;51.988;7.646;2023-12-20T02:40:10;5.90;99.90
13264;DHT22;6700;51.988;7.646;2023-12-20T02:42:37;5.90;99.90
13264;DHT22;6700;51.988;7.646;2023-12-20T02:45:04;5.80;99.90
13264;DHT22;6700;51.988;7.646;2023-12-20T02:47:30;5.80;99.90
13264;DHT22;6700;51.988;7.646;2023-12-20T02:49:57;5.80;99.90
13264;DHT22;6700;51.988;7.646;2023-12-20T02:52:24;5.80;99.90
13264;DHT22;6700;51.988;7.646;2023-12-20T02:54:51;5.80;99.90
13264;DHT22;6700;51.988;7.646;2023-12-20T02:57:18;5.80;99.90
13264;DHT22;6700;51.988;7.646;2023-12-20T02:59:44;5.90;99.90
13264;DHT22;6700;51.988;7.646;2023-12-20T03:02:11;5.90;99.90
13264;DHT22;6700;51.988;7.646;2023-12-20T03:04:38;5.80;99.90
13264;DHT22;6700;51.988;7.646;2023-12-20T03:07:05;5.80;99.90
13264;DHT22;6700;51.988;7.646;2023-12-20T03:09:31;5.80;99.90
13264;DHT22;6700;51.988;7.646;2023-12-20T03:12:18;5.80;99.90
13264;DHT22;6700;51.988;7.646;2023-12-20T03:14:45;5.80;99.90
13264;DHT22;6700;51.988;7.646;2023-12-20T03:17:11;5.80;99.90
13264;DHT22;6700;51.988;7.646;2023-12-20T03:19:38;5.80;99.90
13264;DHT22;6700;51.988;7.646;2023-12-20T03:22:05;5.80;99.90
13264;DHT22;6700;51.988;7.646;2023-12-20T03:24:32;5.80;99.90
13264;DHT22;6700;51.988;7.646;2023-12-20T03:26:58;5.80;99.90
13264;DHT22;6700;51.988;7.646;2023-12-20T03:29:25;5.80;99.90
13264;DHT22;6700;51.988;7.646;2023-12-20T03:31:51;5.80;99.90
13264;DHT22;6700;51.988;7.646;2023-12-20T03:34:18;5.80;99.90
13264;DHT22;6700;51.988;7.646;2023-12-20T03:36:45;5.80;99.90
13264;DHT22;6700;51.988;7.646;2023-12-20T03:39:14;5.90;99.90
13264;DHT22;6700;51.988;7.646;2023-12-20T03:41:40;5.90;99.90
13264;DHT22;6700;51.988;7.646;2023-12-20T03:44:08;5.90;99.90
13264;DHT22;6700;51.988;7.646;2023-12-20T03:46:35;5.80;99.90
13264;DHT22;6700;51.988;7.646;2023-12-20T03:49:01;5.80;99.90
13264;DHT22;6700;51.988;7.646;2023-12-20T03:51:30;5.80;99.90
13264;DHT22;6700;51.988;7.646;2023-12-20T03:53:57;5.80;99.90
13264;DHT22;6700;51.988;7.646;2023-12-20T03:56:23;5.80;99.90
13264;DHT22;6700;51.988;7.646;2023-12-20T03:58:50;5.80;99.90
13264;DHT22;6700;51.988;7.646;2023-12-20T04:01:16;5.90;99.90
13264;DHT22;6700;51.988;7.646;2023-12-20T04:03:43;5.90;99.90
13264;DHT22;6700;51.988;7.646;2023-12-20T04:06:10;5.90;99.90
13264;DHT22;6700;51.988;7.646;2023-12-20T04:08:36;5.90;99.90
13264;DHT22;6700;51.988;7.646;2023-12-20T04:11:03;5.90;99.90
13264;DHT22;6700;51.988;7.646;2023-12-20T04:13:30;5.90;99.90
13264;DHT22;6700;51.988;7.646;2023-12-20T04:15:56;5.90;99.90
13264;DHT22;6700;51.988;7.646;2023-12-20T04:18:23;5.90;99.90
13264;DHT22;6700;51.988;7.646;2023-12-20T04:20:50;5.90;99.90
13264;DHT22;6700;51.988;7.646;2023-12-20T04:23:18;5.90;99.90
13264;DHT22;6700;51.988;7.646;2023-12-20T04:25:46;6.00;99.90
13264;DHT22;6700;51.988;7.646;2023-12-20T04:28:13;5.90;99.90
13264;DHT22;6700;51.988;7.646;2023-12-20T04:30:40;6.00;99.90
13264;DHT22;6700;51.988;7.646;2023-12-20T04:33:06;6.00;99.90
13264;DHT22;6700;51.988;7.646;2023-12-20T04:35:33;6.00;99.90
13264;DHT22;6700;51.988;7.646;2023-12-20T04:38:00;6.00;99.90
13264;DHT22;6700;51.988;7.646;2023-12-20T04:40:26;6.00;99.90
13264;DHT22;6700;51.988;7.646;2023-12-20T04:42:53;6.10;99.90
13264;DHT22;6700;51.988;7.646;2023-12-20T04:45:20;6.10;99.90
13264;DHT22;6700;51.988;7.646;2023-12-20T04:47:46;6.10;99.90
13264;DHT22;6700;51.988;7.646;2023-12-20T04:50:14;6.10;99.90
13264;DHT22;6700;51.988;7.646;2023-12-20T04:52:41;6.10;99.90
13264;DHT22;6700;51.988;7.646;2023-12-20T04:55:08;6.10;99.90
13264;DHT22;6700;51.988;7.646;2023-12-20T04:57:35;6.10;99.90
13264;DHT22;6700;51.988;7.646;2023-12-20T05:00:02;6.10;99.90
13264;DHT22;6700;51.988;7.646;2023-12-20T05:02:29;6.00;99.90
13264;DHT22;6700;51.988;7.646;2023-12-20T05:04:56;6.00;99.90
13264;DHT22;6700;51.988;7.646;2023-12-20T05:07:23;6.00;99.90
13264;DHT22;6700;51.988;7.646;2023-12-20T05:09:49;6.00;99.90
13264;DHT22;6700;51.988;7.646;2023-12-20T05:12:16;6.00;99.90
13264;DHT22;6700;51.988;7.646;2023-12-20T05:14:43;6.00;99.90
13264;DHT22;6700;51.988;7.646;2023-12-20T05:17:11;6.00;99.90
13264;DHT22;6700;51.988;7.646;2023-12-20T05:19:37;6.10;99.90
13264;DHT22;6700;51.988;7.646;2023-12-20T05:22:04;6.10;99.90
13264;DHT22;6700;51.988;7.646;2023-12-20T05:24:31;6.10;99.90
13264;DHT22;6700;51.988;7.646;2023-12-20T05:26:57;6.10;99.90
13264;DHT22;6700;51.988;7.646;2023-12-20T05:29:24;6.10;99.90
13264;DHT22;6700;51.988;7.646;2023-12-20T05:31:50;6.10;99.90
13264;DHT22;6700;51.988;7.646;2023-12-20T05:34:17;6.20;99.90
13264;DHT22;6700;51.988;7.646;2023-12-20T05:36:44;6.20;99.90
13264;DHT22;6700;51.988;7.646;2023-12-20T05:39:11;6.10;99.90
13264;DHT22;6700;51.988;7.646;2023-12-20T05:41:38;6.10;99.90
13264;DHT22;6700;51.988;7.646;2023-12-20T05:44:04;6.10;99.90
13264;DHT22;6700;51.988;7.646;2023-12-20T05:46:31;6.10;99.90
13264;DHT22;6700;51.988;7.646;2023-12-20T05:48:57;6.10;99.90
13264;DHT22;6700;51.988;7.646;2023-12-20T05:51:24;6.20;99.90
13264;DHT22;6700;51.988;7.646;2023-12-20T05:53:51;6.10;99.90
13264;DHT22;6700;51.988;7.646;2023-12-20T05:56:17;6.20;99.90
13264;DHT22;6700;51.988;7.646;2023-12-20T05:58:44;6.20;99.90
13264;DHT22;6700;51.988;7.646;2023-12-20T06:01:11;6.20;99.90
13264;DHT22;6700;51.988;7.646;2023-12-20T06:03:40;6.30;99.90
13264;DHT22;6700;51.988;7.646;2023-12-20T06:06:07;6.30;99.90
13264;DHT22;6700;51.988;7.646;2023-12-20T06:08:42;6.20;99.90
13264;DHT22;6700;51.988;7.646;2023-12-20T06:11:10;6.20;99.90
13264;DHT22;6700;51.988;7.646;2023-12-20T06:13:37;6.20;99.90
13264;DHT22;6700;51.988;7.646;2023-12-20T06:16:05;6.30;99.90
13264;DHT22;6700;51.988;7.646;2023-12-20T06:18:31;6.30;99.90
13264;DHT22;6700;51.988;7.646;2023-12-20T06:20:58;6.30;99.90
13264;DHT22;6700;51.988;7.646;2023-12-20T06:23:25;6.30;99.90
13264;DHT22;6700;51.988;7.646;2023-12-20T06:25:52;6.30;99.90
13264;DHT22;6700;51.988;7.646;2023-12-20T06:28:18;6.30;99.90
13264;DHT22;6700;51.988;7.646;2023-12-20T06:30:45;6.30;99.90
13264;DHT22;6700;51.988;7.646;2023-12-20T06:33:13;6.30;99.90
13264;DHT22;6700;51.988;7.646;2023-12-20T06:35:40;6.30;99.90
13264;DHT22;6700;51.988;7.646;2023-12-20T06:38:07;6.30;99.90
13264;DHT22;6700;51.988;7.646;2023-12-20T06:40:33;6.30;99.90
13264;DHT22;6700;51.988;7.646;2023-12-20T06:43:00;6.30;99.90
13264;DHT22;6700;51.988;7.646;2023-12-20T06:45:38;6.30;99.90
13264;DHT22;6700;51.988;7.646;2023-12-20T06:48:05;6.30;99.90
13264;DHT22;6700;51.988;7.646;2023-12-20T06:50:31;6.30;99.90
13264;DHT22;6700;51.988;7.646;2023-12-20T06:52:58;6.30;99.90
13264;DHT22;6700;51.988;7.646;2023-12-20T06:55:25;6.30;99.90
13264;DHT22;6700;51.988;7.646;2023-12-20T06:57:51;6.40;99.90
13264;DHT22;6700;51.988;7.646;2023-12-20T07:00:18;6.30;99.90
13264;DHT22;6700;51.988;7.646;2023-12-20T07:02:46;6.30;99.90
13264;DHT22;6700;51.988;7.646;2023-12-20T07:05:16;6.30;99.90
13264;DHT22;6700;51.988;7.646;2023-12-20T07:07:43;6.40;99.90
13264;DHT22;6700;51.988;7.646;2023-12-20T07:10:10;6.40;99.90
13264;DHT22;6700;51.988;7.646;2023-12-20T07:12:37;6.30;99.90
13264;DHT22;6700;51.988;7.646;2023-12-20T07:15:04;6.40;99.90
13264;DHT22;6700;51.988;7.646;2023-12-20T07:17:32;6.40;99.90
13264;DHT22;6700;51.988;7.646;2023-12-20T07:20:00;6.40;99.90
13264;DHT22;6700;51.988;7.646;2023-12-20T07:22:30;6.40;99.90
13264;DHT22;6700;51.988;7.646;2023-12-20T07:25:00;6.40;99.90
13264;DHT22;6700;51.988;7.646;2023-12-20T07:27:27;6.40;99.90
13264;DHT22;6700;51.988;7.646;2023-12-20T07:29:53;6.50;99.90
13264;DHT22;6700;51.988;7.646;2023-12-20T07:32:20;6.40;99.90
13264;DHT22;6700;51.988;7.646;2023-12-20T07:34:46;6.40;99.90
13264;DHT22;6700;51.988;7.646;2023-12-20T07:37:14;6.40;99.90
13264;DHT22;6700;51.988;7.646;2023-12-20T07:39:41;6.40;99.90
13264;DHT22;6700;51.988;7.646;2023-12-20T07:42:08;6.40;99.90
13264;DHT22;6700;51.988;7.646;2023-12-20T07:44:35;6.50;99.90
13264;DHT22;6700;51.988;7.646;2023-12-20T07:47:04;6.40;99.90
13264;DHT22;6700;51.988;7.646;2023-12-20T07:49:31;6.50;99.90
13264;DHT22;6700;51.988;7.646;2023-12-20T07:51:58;6.50;99.90
13264;DHT22;6700;51.988;7.646;2023-12-20T07:54:25;6.50;99.90
13264;DHT22;6700;51.988;7.646;2023-12-20T07:56:52;6.40;99.90
13264;DHT22;6700;51.988;7.646;2023-12-20T07:59:18;6.50;99.90
13264;DHT22;6700;51.988;7.646;2023-12-20T08:01:58;6.50;99.90
13264;DHT22;6700;51.988;7.646;2023-12-20T08:04:25;6.50;99.90
13264;DHT22;6700;51.988;7.646;2023-12-20T08:06:52;6.50;99.90
13264;DHT22;6700;51.988;7.646;2023-12-20T08:09:19;6.50;99.90
13264;DHT22;6700;51.988;7.646;2023-12-20T08:11:46;6.50;99.90
13264;DHT22;6700;51.988;7.646;2023-12-20T08:14:13;6.50;99.90
13264;DHT22;6700;51.988;7.646;2023-12-20T08:16:41;6.50;99.90
13264;DHT22;6700;51.988;7.646;2023-12-20T08:19:07;6.50;99.90
13264;DHT22;6700;51.988;7.646;2023-12-20T08:21:34;6.60;99.90
13264;DHT22;6700;51.988;7.646;2023-12-20T08:24:04;6.60;99.90
13264;DHT22;6700;51.988;7.646;2023-12-20T08:26:31;6.60;99.90
13264;DHT22;6700;51.988;7.646;2023-12-20T08:28:58;6.60;99.90
13264;DHT22;6700;51.988;7.646;2023-12-20T08:31:27;6.60;99.90
13264;DHT22;6700;51.988;7.646;2023-12-20T08:33:54;6.60;99.90
13264;DHT22;6700;51.988;7.646;2023-12-20T08:36:21;6.60;99.90
13264;DHT22;6700;51.988;7.646;2023-12-20T08:38:49;6.60;99.90
13264;DHT22;6700;51.988;7.646;2023-12-20T08:41:19;6.60;99.90
13264;DHT22;6700;51.988;7.646;2023-12-20T08:43:46;6.60;99.90
13264;DHT22;6700;51.988;7.646;2023-12-20T08:46:14;6.70;99.90
13264;DHT22;6700;51.988;7.646;2023-12-20T08:48:41;6.70;99.90
13264;DHT22;6700;51.988;7.646;2023-12-20T08:51:08;6.70;99.90
13264;DHT22;6700;51.988;7.646;2023-12-20T08:53:36;6.70;99.90
13264;DHT22;6700;51.988;7.646;2023-12-20T08:56:03;6.80;99.90
13264;DHT22;6700;51.988;7.646;2023-12-20T08:58:32;6.80;99.90
13264;DHT22;6700;51.988;7.646;2023-12-20T09:00:59;6.80;99.90
13264;DHT22;6700;51.988;7.646;2023-12-20T09:03:26;6.80;99.90
13264;DHT22;6700;51.988;7.646;2023-12-20T09:05:53;6.80;99.90
13264;DHT22;6700;51.988;7.646;2023-12-20T09:08:20;6.80;99.90
13264;DHT22;6700;51.988;7.646;2023-12-20T09:10:46;6.90;99.90
13264;DHT22;6700;51.988;7.646;2023-12-20T09:13:13;6.80;99.90
13264;DHT22;6700;51.988;7.646;2023-12-20T09:15:40;6.90;99.90
13264;DHT22;6700;51.988;7.646;2023-12-20T09:18:06;6.90;99.90
13264;DHT22;6700;51.988;7.646;2023-12-20T09:20:34;6.90;99.90
13264;DHT22;6700;51.988;7.646;2023-12-20T09:23:00;6.90;99.90
13264;DHT22;6700;51.988;7.646;2023-12-20T09:25:27;6.90;99.90
13264;DHT22;6700;51.988;7.646;2023-12-20T09:27:55;6.90;99.90
13264;DHT22;6700;51.988;7.646;2023-12-20T09:30:21;7.00;99.90
13264;DHT22;6700;51.988;7.646;2023-12-20T09:32:56;7.00;99.90
13264;DHT22;6700;51.988;7.646;2023-12-20T09:35:23;6.90;99.90
13264;DHT22;6700;51.988;7.646;2023-12-20T09:37:50;6.90;99.90
13264;DHT22;6700;51.988;7.646;2023-12-20T09:40:20;7.00;99.90
13264;DHT22;6700;51.988;7.646;2023-12-20T09:42:48;7.00;99.90
13264;DHT22;6700;51.988;7.646;2023-12-20T09:45:19;7.10;99.90
13264;DHT22;6700;51.988;7.646;2023-12-20T09:47:46;7.30;99.90
13264;DHT22;6700;51.988;7.646;2023-12-20T09:50:13;7.40;99.90
13264;DHT22;6700;51.988;7.646;2023-12-20T09:52:40;7.30;99.90
13264;DHT22;6700;51.988;7.646;2023-12-20T09:55:08;7.40;99.90
13264;DHT22;6700;51.988;7.646;2023-12-20T09:57:36;7.40;99.90
13264;DHT22;6700;51.988;7.646;2023-12-20T10:00:02;7.50;99.90
13264;DHT22;6700;51.988;7.646;2023-12-20T10:02:30;7.40;99.90
13264;DHT22;6700;51.988;7.646;2023-12-20T10:04:59;7.50;99.90
13264;DHT22;6700;51.988;7.646;2023-12-20T10:07:25;7.40;99.90
13264;DHT22;6700;51.988;7.646;2023-12-20T10:09:52;7.30;99.90
13264;DHT22;6700;51.988;7.646;2023-12-20T10:12:20;7.20;99.90
13264;DHT22;6700;51.988;7.646;2023-12-20T10:14:47;7.20;99.90
13264;DHT22;6700;51.988;7.646;2023-12-20T10:17:13;7.10;99.90
13264;DHT22;6700;51.988;7.646;2023-12-20T10:19:40;7.10;99.90
13264;DHT22;6700;51.988;7.646;2023-12-20T10:22:07;7.10;99.90
13264;DHT22;6700;51.988;7.646;2023-12-20T10:24:34;7.10;99.90
13264;DHT22;6700;51.988;7.646;2023-12-20T10:27:01;7.10;99.90
13264;DHT22;6700;51.988;7.646;2023-12-20T10:29:33;7.10;99.90
13264;DHT22;6700;51.988;7.646;2023-12-20T10:34:52;7.10;99.90
13264;DHT22;6700;51.988;7.646;2023-12-20T10:37:19;7.10;99.90
13264;DHT22;6700;51.988;7.646;2023-12-20T10:39:50;7.10;99.90
13264;DHT22;6700;51.988;7.646;2023-12-20T10:42:26;7.20;99.90
13264;DHT22;6700;51.988;7.646;2023-12-20T10:44:54;7.20;99.90
13264;DHT22;6700;51.988;7.646;2023-12-20T10:47:21;7.20;99.90
13264;DHT22;6700;51.988;7.646;2023-12-20T10:49:49;7.20;99.90
13264;DHT22;6700;51.988;7.646;2023-12-20T10:52:16;7.30;99.90
13264;DHT22;6700;51.988;7.646;2023-12-20T10:54:44;7.30;99.90
13264;DHT22;6700;51.988;7.646;2023-12-20T10:57:10;7.30;99.90
13264;DHT22;6700;51.988;7.646;2023-12-20T10:59:38;7.20;99.90
13264;DHT22;6700;51.988;7.646;2023-12-20T11:02:05;7.20;99.90
13264;DHT22;6700;51.988;7.646;2023-12-20T11:07:32;7.10;99.90
13264;DHT22;6700;51.988;7.646;2023-12-20T11:10:19;7.10;99.90
13264;DHT22;6700;51.988;7.646;2023-12-20T11:15:22;7.00;99.90
13264;DHT22;6700;51.988;7.646;2023-12-20T11:17:55;7.00;99.90
13264;DHT22;6700;51.988;7.646;2023-12-20T11:20:48;7.10;99.90
13264;DHT22;6700;51.988;7.646;2023-12-20T11:23:13;7.10;99.90
13264;DHT22;6700;51.988;7.646;2023-12-20T11:25:46;7.10;99.90
13264;DHT22;6700;51.988;7.646;2023-12-20T11:28:14;7.10;99.90
13264;DHT22;6700;51.988;7.646;2023-12-20T11:30:51;7.20;99.90
13264;DHT22;6700;51.988;7.646;2023-12-20T11:33:22;7.20;99.90
13264;DHT22;6700;51.988;7.646;2023-12-20T11:35:57;7.20;99.90
13264;DHT22;6700;51.988;7.646;2023-12-20T11:38:26;7.20;99.90
13264;DHT22;6700;51.988;7.646;2023-12-20T11:40:53;7.20;99.90
13264;DHT22;6700;51.988;7.646;2023-12-20T11:43:34;7.30;99.90
13264;DHT22;6700;51.988;7.646;2023-12-20T11:46:05;7.40;99.90
